Latest Weather Observations for High Range (Wanganderry)

IDN60801

Issued at 3:02 pm EDT Thursday 15 November 2018 (issued every 10 minutes, with the page automatically refreshed every 10 minutes)

About weather observations | Map of weather stations | Latest weather observations for NSW | Other Formats
Station Details ID: 068262 Name: HIGH RANGE AWS (WANGANDERRY) Lat: -34.33 Lon: 150.27 Height: 813.6 m
Data from the previous 72 hours. | See also: Recent months for locations in New South Wales
Date/Time
EDT
Temp
°C
App
Temp
°C
Dew
Point
°C
Rel
Hum
%
Delta-T
°C
Wind Press
QNH
hPa
Press
MSL
hPa
Rain since
9am
mm
Dir  Spd
km/h
Gust
km/h
Spd
kts
Gust
kts
15/03:00pm 13.0 10.1 13.0 100 0.0 SSE 20 30 11 16 1020.5 1017.8 5.0
15/02:30pm 13.4 11.7 12.6 95 0.5 SSE 13 26 7 14 1020.6 1017.9 3.8
15/02:00pm 14.8 12.0 12.5 86 1.3 SE 19 26 10 14 1020.6 1017.9 1.2
15/01:30pm 15.3 12.1 13.2 87 1.2 SSE 22 30 12 16 1020.6 1017.9 1.2
15/01:00pm 14.8 11.6 14.3 97 0.3 SE 24 30 13 16 1020.4 1017.7 1.2
15/12:30pm 14.6 11.1 13.3 92 0.8 SSE 24 30 13 16 1020.5 1017.8 1.2
15/12:00pm 18.2 14.6 12.9 71 3.1 SSE 24 32 13 17 1020.2 1017.5 0.0
15/11:30am 18.7 16.1 13.8 73 2.9 SSE 20 28 11 15 1020.4 1017.7 0.0
15/11:00am 19.3 15.7 14.1 72 3.1 SSE 26 35 14 19 1020.3 1017.6 0.0
15/10:30am 19.3 17.6 13.7 70 3.3 SSE 15 19 8 10 1020.4 1017.7 0.0
15/10:00am 20.1 18.8 13.8 67 3.8 SSE 13 22 7 12 1020.3 1017.6 0.0
15/09:30am 21.2 20.4 14.1 64 4.3 SW 11 20 6 11 1020.3 1017.6 0.0
15/09:00am 19.8 17.9 13.0 65 4.0 WSW 15 20 8 11 1020.3 1017.6 0.0
15/08:30am 18.8 17.0 13.2 70 3.3 SSW 15 19 8 10 1020.0 1017.3 0.0
15/08:00am 17.6 15.2 12.5 72 2.9 SSW 17 20 9 11 1019.7 1017.0 0.0
15/07:30am 17.5 15.3 12.2 71 3.0 W 15 20 8 11 1019.2 1016.5 0.0
15/07:00am 16.9 14.7 12.0 73 2.8 WNW 15 19 8 10 1018.8 1016.1 0.0
15/06:30am 15.9 12.9 11.9 77 2.3 WNW 19 20 10 11 1018.5 1015.7 0.0
15/06:00am 15.6 12.5 11.6 77 2.2 WNW 19 22 10 12 1017.9 1015.2 0.0
15/05:30am 15.5 12.7 11.5 77 2.2 WNW 17 20 9 11 1017.6 1014.9 0.0
15/05:00am 15.2 12.9 11.6 79 2.0 W 15 20 8 11 1017.5 1014.8 0.0
15/04:30am 15.1 12.0 11.7 80 1.9 W 19 20 10 11 1017.3 1014.5 0.0
15/04:00am 15.6 12.4 12.0 79 2.0 WNW 20 24 11 13 1017.3 1014.5 0.0
15/03:30am 15.7 12.6 12.1 79 2.0 WNW 20 24 11 13 1017.2 1014.4 0.0
15/03:00am 15.5 12.5 11.9 79 2.0 WNW 19 26 10 14 1017.2 1014.4 0.0
15/02:30am 15.6 12.6 11.8 78 2.1 W 19 22 10 12 1017.3 1014.5 0.0
15/02:00am 15.8 12.8 12.0 78 2.2 W 19 22 10 12 1017.6 1014.9 0.0
15/01:30am 15.8 12.6 11.8 77 2.3 W 20 24 11 13 1017.8 1015.1 0.0
15/01:00am 15.8 13.1 11.8 77 2.3 W 17 22 9 12 1018.0 1015.3 0.0
15/12:30am 16.0 12.5 12.2 78 2.2 W 22 26 12 14 1018.2 1015.5 0.0
15/12:00am 15.7 12.7 12.1 79 2.0 W 19 24 10 13 1018.2 1015.5 0.0
 
Date/Time
EDT
Temp
°C
App
Temp
°C
Dew
Point
°C
Rel
Hum
%
Delta-T
°C
Wind Press
QNH
hPa
Press
MSL
hPa
Rain since
9am
mm
Dir  Spd
km/h
Gust
km/h
Spd
kts
Gust
kts
14/11:30pm 15.6 12.9 11.8 78 2.1 W 17 19 9 10 1018.4 1015.6 0.0
14/11:00pm 16.1 14.6 13.0 82 1.8 WNW 13 17 7 9 1018.5 1015.7 0.0
14/10:30pm 16.2 14.0 13.3 83 1.7 WNW 17 20 9 11 1018.6 1015.9 0.0
14/10:00pm 15.9 14.6 13.6 86 1.3 NNW 13 15 7 8 1018.6 1015.9 0.0
14/09:30pm 16.2 15.3 12.6 79 2.1 NNW 9 11 5 6 1018.5 1015.7 0.0
14/09:00pm 16.4 15.7 13.1 81 1.9 NNW 9 11 5 6 1017.9 1015.2 0.0
14/08:30pm 17.0 16.6 12.9 77 2.4 NNW 7 7 4 4 1017.9 1015.2 0.0
14/08:00pm 17.5 17.0 12.6 73 2.8 NNW 7 9 4 5 1017.8 1015.1 0.0
14/07:30pm 18.1 17.5 12.3 69 3.3 NNW 7 9 4 5 1017.5 1014.8 0.0
14/07:00pm 18.5 17.4 12.0 66 3.7 NNW 9 11 5 6 1017.1 1014.3 0.0
14/06:30pm 18.9 18.5 12.4 66 3.8 NNW 6 11 3 6 1016.9 1014.2 0.0
14/06:00pm 19.4 16.9 12.2 63 4.2 N 17 26 9 14 1016.7 1014.0 0.0
14/05:30pm 18.3 17.8 13.8 75 2.7 N 9 13 5 7 1017.1 1014.3 0.0
14/05:00pm 18.3 18.0 13.2 72 3.0 N 7 13 4 7 1017.1 1014.3 0.0
14/04:30pm 18.4 17.5 12.6 69 3.4 N 9 17 5 9 1016.7 1014.0 0.0
14/04:00pm 19.2 17.6 12.9 67 3.7 N 13 17 7 9 1016.5 1013.8 0.0
14/03:30pm 20.5 17.7 12.5 60 4.7 N 19 24 10 13 1016.4 1013.7 0.0
14/03:00pm 19.4 17.1 12.9 66 3.8 NNE 17 22 9 12 1016.6 1013.9 0.0
14/02:30pm 19.3 16.7 13.3 68 3.5 NNE 19 26 10 14 1016.8 1014.1 0.0
14/02:00pm 18.0 16.0 12.7 71 3.1 N 15 20 8 11 1017.1 1014.3 0.0
14/01:30pm 18.2 15.7 12.2 68 3.5 NNE 17 20 9 11 1017.3 1014.5 0.0
14/01:00pm 18.9 16.8 13.7 72 3.1 NNE 17 24 9 13 1017.6 1014.9 0.0
14/12:30pm 18.0 14.8 11.8 67 3.5 NNE 20 24 11 13 1017.8 1015.1 0.0
14/12:00pm 18.7 18.3 14.0 74 2.8 NNW 9 13 5 7 1018.5 1015.7 0.0
14/11:30am 17.2 17.2 14.3 83 1.7 NW 7 9 4 5 1018.8 1016.1 0.0
14/11:00am 17.1 17.3 14.2 83 1.7 NW 6 7 3 4 1018.7 1016.0 0.0
14/10:30am 17.0 17.2 14.3 84 1.6 NNW 6 9 3 5 1018.2 1015.5 0.0
14/10:00am 16.2 16.3 13.9 86 1.4 NW 6 7 3 4 1018.4 1015.6 0.0
14/09:30am 16.3 15.9 14.0 86 1.4 WSW 9 11 5 6 1018.4 1015.6 0.0
14/09:00am 15.8 15.4 14.2 90 0.9 W 9 13 5 7 1018.5 1015.7 0.8
14/08:30am 15.8 15.6 13.6 87 1.3 W 7 15 4 8 1018.4 1015.6 0.6
14/08:00am 15.8 15.9 12.7 82 1.8 W 4 4 2 2 1018.1 1015.4 0.6
14/07:30am 15.2 14.7 12.5 84 1.5 W 7 9 4 5 1017.9 1015.2 0.4
14/07:00am 15.0 13.3 12.3 84 1.5 W 13 15 7 8 1017.7 1015.0 0.2
14/06:30am 15.0 12.1 12.3 84 1.5 W 19 22 10 12 1017.3 1014.5 0.0
14/06:00am 15.1 12.5 11.9 81 1.8 WSW 17 22 9 12 1016.8 1014.1 0.0
14/05:30am 15.5 12.2 11.7 78 2.1 WSW 20 22 11 12 1016.6 1013.9 0.0
14/05:00am 15.5 12.4 12.1 80 1.9 WSW 20 24 11 13 1016.3 1013.5 0.0
14/04:30am 15.2 12.6 12.0 81 1.8 WSW 17 20 9 11 1016.2 1013.4 0.0
14/04:00am 14.2 12.7 14.2 100 0.0 W 15 17 8 9 1016.3 1013.5 0.0
14/03:30am 13.9 13.8 13.9 100 0.0 NNE 7 11 4 6 1016.4 1013.7 0.0
14/03:00am 13.5 13.3 13.5 100 0.0 NNE 7 7 4 4 1016.4 1013.7 0.0
14/02:30am 13.5 13.3 13.5 100 0.0 NNE 7 9 4 5 1016.6 1013.9 0.0
14/02:00am 13.6 13.0 13.6 100 0.0 NNE 9 11 5 6 1017.1 1014.3 0.0
14/01:30am 13.7 12.8 13.7 100 0.0 NNE 11 13 6 7 1017.3 1014.5 0.0
14/01:00am 13.6 12.7 13.6 100 0.0 NNE 11 13 6 7 1017.6 1014.9 0.0
14/12:30am 13.6 12.3 13.6 100 0.0 NNE 13 13 7 7 1017.8 1015.1 0.0
14/12:00am 13.9 12.6 13.7 99 0.1 NNE 13 15 7 8 1018.1 1015.4 0.0
 
Date/Time
EDT
Temp
°C
App
Temp
°C
Dew
Point
°C
Rel
Hum
%
Delta-T
°C
Wind Press
QNH
hPa
Press
MSL
hPa
Rain since
9am
mm
Dir  Spd
km/h
Gust
km/h
Spd
kts
Gust
kts
13/11:30pm 14.1 12.8 13.6 97 0.3 NNE 13 17 7 9 1018.1 1015.4 0.0
13/11:00pm 14.5 12.4 13.5 94 0.6 NNE 17 20 9 11 1018.1 1015.4 0.0
13/10:30pm 14.8 13.0 13.3 91 0.9 NNE 15 19 8 10 1018.5 1015.7 0.0
13/10:00pm 15.0 13.4 12.9 87 1.2 NE 13 17 7 9 1018.5 1015.7 0.0
13/09:30pm 15.5 14.2 12.6 83 1.7 NNE 11 15 6 8 1018.5 1015.7 0.0
13/09:00pm 16.0 13.2 12.6 80 1.9 NNE 19 22 10 12 1018.4 1015.6 0.0
13/08:30pm 16.7 13.3 12.5 76 2.4 NNE 22 26 12 14 1017.9 1015.2 0.0
13/08:00pm 17.7 13.8 12.2 70 3.2 NNE 24 30 13 16 1017.7 1015.0 0.0
13/07:30pm 18.7 14.8 12.0 65 3.9 NNE 24 32 13 17 1017.6 1014.9 0.0
13/07:00pm 19.9 14.9 11.1 57 5.0 NE 28 33 15 18 1017.1 1014.3 0.0
13/06:30pm 20.7 15.9 10.2 51 5.9 NNE 26 33 14 18 1016.9 1014.2 0.0
13/06:00pm 22.4 17.2 8.9 42 7.5 NE 26 33 14 18 1016.8 1014.1 0.0
13/05:30pm 23.2 17.6 5.2 31 9.4 NE 24 32 13 17 1016.9 1014.2 0.0
13/05:00pm 24.5 19.2 4.8 28 10.3 NE 22 33 12 18 1016.7 1014.0 0.0
13/04:30pm 25.0 19.0 5.2 28 10.4 NE 26 35 14 19 1016.7 1014.0 0.0
13/04:00pm 24.4 19.3 4.2 27 10.4 NE 20 28 11 15 1017.1 1014.3 0.0
13/03:30pm 24.9 18.9 3.5 25 10.9 NE 24 33 13 18 1017.4 1014.6 0.0
13/03:00pm 24.7 18.7 3.4 25 10.8 NE 24 35 13 19 1017.7 1015.0 0.0
13/02:30pm 24.9 19.8 4.1 26 10.7 NE 20 30 11 16 1018.2 1015.5 0.0
13/02:00pm 25.1 20.5 6.3 30 10.1 NE 20 32 11 17 1018.7 1016.0 0.0
13/01:30pm 23.4 18.2 5.3 31 9.5 NNE 22 33 12 18 1019.0 1016.3 0.0
13/01:00pm 23.5 19.2 7.2 35 8.8 NNE 19 30 10 16 1019.4 1016.7 0.0
13/12:30pm 22.0 17.0 6.3 36 8.3 NE 22 30 12 16 1019.8 1017.1 0.0
13/12:00pm 22.0 16.5 5.8 35 8.5 NE 24 33 13 18 1020.1 1017.4 0.0
13/11:30am 21.7 17.2 6.8 38 7.9 NNE 20 28 11 15 1020.4 1017.7 0.0
13/11:00am 20.9 16.5 7.2 41 7.3 NNE 20 28 11 15 1020.4 1017.7 0.0
13/10:30am 20.4 15.6 5.6 38 7.6 NNE 20 28 11 15 1020.6 1017.9 0.0
13/10:00am 20.2 13.9 3.9 34 8.1 NNE 26 35 14 19 1020.6 1017.9 0.0
13/09:30am 18.6 11.1 3.6 37 7.4 NNE 32 39 17 21 1020.8 1018.2 0.0
13/09:00am 18.1 11.8 5.7 44 6.3 NNE 28 35 15 19 1020.8 1018.2 0.2
13/08:30am 17.0 13.2 9.7 62 4.0 NNE 20 30 11 16 1021.0 1018.3 0.2
13/08:00am 14.4 10.5 10.8 79 2.0 NNE 22 28 12 15 1020.6 1017.9 0.2
13/07:30am 12.1 9.0 12.1 100 0.0 NNE 20 24 11 13 1020.5 1017.8 0.2
13/07:00am 11.0 7.2 11.0 100 0.0 NNE 22 22 12 12 1020.5 1017.8 0.2
13/06:30am 10.7 7.3 10.7 100 0.0 NNE 19 22 10 12 1020.4 1017.7 0.2
13/06:00am 10.7 7.7 10.7 100 0.0 NNE 17 20 9 11 1020.1 1017.4 0.2
13/05:30am 10.6 7.2 10.6 100 0.0 NNE 19 20 10 11 1020.0 1017.3 0.2
13/05:00am 10.7 7.1 10.7 100 0.0 NNE 20 24 11 13 1019.8 1017.1 0.2
13/04:30am 10.6 7.2 10.6 100 0.0 NNE 19 20 10 11 1019.9 1017.2 0.2
13/04:00am 11.0 7.7 11.0 100 0.0 NNE 19 20 10 11 1020.0 1017.3 0.2
13/03:30am 11.0 8.1 11.0 100 0.0 NNE 17 19 9 10 1020.2 1017.5 0.2
13/03:00am 10.9 8.4 10.9 100 0.0 NNE 15 17 8 9 1020.3 1017.6 0.2
13/02:30am 11.1 8.1 10.5 96 0.3 NNE 17 19 9 10 1020.4 1017.7 0.2
13/02:00am 11.4 8.2 10.1 92 0.7 NNE 17 20 9 11 1020.7 1018.1 0.2
13/01:30am 11.7 8.6 10.4 92 0.7 NNE 17 20 9 11 1021.0 1018.3 0.2
13/01:00am 11.9 8.4 10.1 89 1.0 NNE 19 22 10 12 1021.2 1018.5 0.2
13/12:30am 12.3 8.6 10.0 86 1.2 NNE 20 24 11 13 1021.3 1018.6 0.2
13/12:00am 12.5 8.7 9.7 83 1.5 NNE 20 24 11 13 1021.7 1019.0 0.2
 
Date/Time
EDT
Temp
°C
App
Temp
°C
Dew
Point
°C
Rel
Hum
%
Delta-T
°C
Wind Press
QNH
hPa
Press
MSL
hPa
Rain since
9am
mm
Dir  Spd
km/h
Gust
km/h
Spd
kts
Gust
kts
12/11:30pm 12.8 8.5 9.4 80 1.8 NNE 22 26 12 14 1021.8 1019.2 0.2
12/11:00pm 13.2 9.3 9.3 77 2.1 NNE 20 28 11 15 1022.3 1019.6 0.2
12/10:30pm 13.3 9.3 9.2 76 2.2 NNE 20 24 11 13 1022.4 1019.7 0.2
12/10:00pm 13.7 9.7 9.2 74 2.4 NNE 20 24 11 13 1022.5 1019.8 0.2
12/09:30pm 14.1 10.2 9.3 73 2.6 NNE 20 26 11 14 1022.5 1019.8 0.2
12/09:00pm 14.7 10.4 9.3 70 2.9 NNE 22 28 12 15 1022.3 1019.6 0.2
12/08:30pm 15.2 11.0 9.8 70 2.9 NE 22 28 12 15 1022.0 1019.4 0.2
12/08:00pm 15.9 11.3 9.8 67 3.3 NE 24 32 13 17 1021.8 1019.2 0.2
12/07:30pm 16.9 13.2 10.3 65 3.6 NE 20 28 11 15 1021.7 1019.0 0.2
12/07:00pm 17.7 13.6 10.1 61 4.2 NE 22 30 12 16 1021.4 1018.7 0.2
12/06:30pm 18.9 14.8 10.2 57 4.8 NE 22 28 12 15 1021.3 1018.6 0.2
12/06:00pm 19.9 15.1 10.3 54 5.4 NE 26 35 14 19 1021.0 1018.3 0.2
12/05:30pm 20.4 15.1 9.9 51 5.9 NE 28 37 15 20 1020.7 1018.1 0.2
12/05:00pm 21.6 17.3 9.2 45 6.9 NE 22 32 12 17 1020.7 1018.1 0.2
12/04:30pm 22.0 17.6 8.9 43 7.2 NE 22 35 12 19 1020.7 1018.1 0.2
12/04:00pm 21.6 17.5 7.8 41 7.5 NE 19 32 10 17 1020.8 1018.2 0.2
12/03:30pm 22.7 18.4 8.0 39 8.0 NE 20 33 11 18 1021.0 1018.3 0.2

Other Formats:

Comma delimited format used in spreadsheet applications
http://www.bom.gov.au/fwo/IDN60801/IDN60801.99742.axf

JavaScript Object Notation format (JSON) in row-major order
http://www.bom.gov.au/fwo/IDN60801/IDN60801.99742.json